Time;durP1;ratioP1;P1;durP2;ratioP2;P2;SDS_P1;SDS_P2;PMS_P1;PMS_P2;Temp;Humidity;BMP_temperature;BMP_pressure;BME280_temperature;BME280_humidity;BME280_pressure;Samples;Min_cycle;Max_cycle;Signal;HPM_P1;HPM_P2
2023/12/01 00:00:39;;;;;;;27.83;16.52;;;;;;;;;;4996385;28;20410;-76
2023/12/01 00:03:05;;;;;;;36.38;21.40;;;;;;;;;;4983044;28;20563;-76
2023/12/01 00:05:30;;;;;;;32.25;19.27;;;;;;;;;;4980752;28;20053;-76
2023/12/01 00:07:55;;;;;;;32.85;19.55;;;;;;;;;;4978872;28;20161;-76
2023/12/01 00:10:21;;;;;;;32.63;19.75;;;;;;;;;;5012244;28;20018;-76
2023/12/01 00:12:46;;;;;;;24.98;15.55;;;;;;;;;;4987400;28;20542;-76
2023/12/01 00:15:11;;;;;;;24.58;14.43;;;;;;;;;;4981156;28;20478;-75
2023/12/01 00:17:36;;;;;;;22.50;13.77;;;;;;;;;;4981541;28;20033;-75
2023/12/01 00:20:01;;;;;;;21.83;12.45;;;;;;;;;;5001296;28;20030;-76
2023/12/01 00:22:27;;;;;;;19.40;12.52;;;;;;;;;;4998279;28;20541;-76
2023/12/01 00:24:52;;;;;;;23.75;15.68;;;;;;;;;;5002621;28;20039;-76
2023/12/01 00:27:17;;;;;;;28.58;16.73;;;;;;;;;;4991889;28;20030;-76
2023/12/01 00:29:43;;;;;;;24.83;14.80;;;;;;;;;;4985725;28;20391;-75
2023/12/01 00:32:08;;;;;;;25.75;15.65;;;;;;;;;;5002635;28;20026;-76
2023/12/01 00:34:33;;;;;;;26.00;15.65;;;;;;;;;;5002086;28;20042;-76
2023/12/01 00:36:58;;;;;;;24.40;15.30;;;;;;;;;;4977920;28;20121;-75
2023/12/01 00:39:23;;;;;;;25.65;16.10;;;;;;;;;;4997439;28;20037;-75
2023/12/01 00:41:49;;;;;;;26.63;16.15;;;;;;;;;;4983454;28;20072;-76
2023/12/01 00:44:14;;;;;;;23.95;14.38;;;;;;;;;;4989898;28;20399;-76
2023/12/01 00:46:39;;;;;;;28.58;14.00;;;;;;;;;;5007116;28;20026;-76
2023/12/01 00:49:04;;;;;;;21.88;13.85;;;;;;;;;;4996325;28;20375;-75
2023/12/01 00:51:29;;;;;;;21.58;13.43;;;;;;;;;;4983734;28;20018;-76
2023/12/01 00:53:55;;;;;;;22.35;13.93;;;;;;;;;;4977416;28;20045;-76
2023/12/01 00:56:20;;;;;;;23.95;14.32;;;;;;;;;;4993101;28;20026;-75
2023/12/01 00:58:45;;;;;;;22.20;13.75;;;;;;;;;;4981266;28;20030;-76
2023/12/01 01:01:10;;;;;;;23.90;12.93;;;;;;;;;;4985077;28;20027;-76
2023/12/01 01:03:36;;;;;;;22.42;13.48;;;;;;;;;;5002137;28;20041;-76
2023/12/01 01:06:02;;;;;;;20.48;12.68;;;;;;;;;;4992780;28;20088;-76
2023/12/01 01:08:30;;;;;;;21.85;14.15;;;;;;;;;;4991295;28;20030;-76
2023/12/01 01:10:55;;;;;;;23.98;13.63;;;;;;;;;;4990627;28;20026;-76
2023/12/01 01:13:21;;;;;;;23.10;14.52;;;;;;;;;;4980999;28;20564;-75
2023/12/01 01:15:46;;;;;;;20.80;13.73;;;;;;;;;;4979843;28;20556;-75
2023/12/01 01:18:11;;;;;;;22.85;14.43;;;;;;;;;;4998114;28;20069;-75
2023/12/01 01:20:36;;;;;;;23.42;15.45;;;;;;;;;;4984688;28;20038;-76
2023/12/01 01:23:02;;;;;;;20.95;12.90;;;;;;;;;;4980872;28;20027;-76
2023/12/01 01:25:28;;;;;;;20.55;13.07;;;;;;;;;;4993521;28;20431;-75
2023/12/01 01:27:53;;;;;;;20.15;12.77;;;;;;;;;;4989351;28;20064;-75
2023/12/01 01:30:18;;;;;;;21.23;12.52;;;;;;;;;;4990455;28;20054;-75
2023/12/01 01:32:43;;;;;;;19.52;12.82;;;;;;;;;;4987827;28;20402;-76
2023/12/01 01:35:09;;;;;;;20.38;12.90;;;;;;;;;;4989780;28;20030;-75
2023/12/01 01:37:34;;;;;;;19.95;12.23;;;;;;;;;;4991188;28;20037;-75
2023/12/01 01:39:59;;;;;;;24.27;14.60;;;;;;;;;;4985263;28;20025;-76
2023/12/01 01:42:24;;;;;;;21.77;12.73;;;;;;;;;;5007946;28;20088;-76
2023/12/01 01:44:49;;;;;;;24.75;14.60;;;;;;;;;;4982402;28;20033;-75
2023/12/01 01:47:14;;;;;;;24.23;15.52;;;;;;;;;;4999258;28;20137;-75
2023/12/01 01:49:40;;;;;;;26.45;15.90;;;;;;;;;;4985937;28;20023;-75
2023/12/01 01:52:05;;;;;;;24.17;14.70;;;;;;;;;;4989021;28;20088;-75
2023/12/01 01:54:31;;;;;;;24.60;14.40;;;;;;;;;;4982700;28;20418;-75
2023/12/01 01:56:57;;;;;;;26.25;16.58;;;;;;;;;;4981799;28;20087;-75
2023/12/01 01:59:22;;;;;;;20.83;13.45;;;;;;;;;;5003002;28;20084;-76
2023/12/01 02:01:48;;;;;;;22.65;13.77;;;;;;;;;;4984064;28;20042;-75
2023/12/01 02:04:14;;;;;;;25.40;15.57;;;;;;;;;;4995936;28;20023;-75
2023/12/01 02:06:39;;;;;;;25.92;16.33;;;;;;;;;;4981052;28;20038;-75
2023/12/01 02:09:06;;;;;;;23.45;13.63;;;;;;;;;;4994857;28;20052;-75
2023/12/01 02:11:31;;;;;;;25.92;16.05;;;;;;;;;;5008620;28;20038;-75
2023/12/01 02:13:59;;;;;;;25.92;15.93;;;;;;;;;;4995745;28;20118;-74
2023/12/01 02:16:25;;;;;;;24.15;15.35;;;;;;;;;;4982933;28;20069;-75
2023/12/01 02:18:51;;;;;;;22.20;14.18;;;;;;;;;;4986186;28;20030;-75
2023/12/01 02:21:20;;;;;;;20.83;12.25;;;;;;;;;;4982698;28;20034;-75
2023/12/01 02:23:45;;;;;;;22.45;13.75;;;;;;;;;;4983356;28;20486;-75
2023/12/01 02:26:10;;;;;;;25.63;15.38;;;;;;;;;;4979961;28;20037;-75
2023/12/01 02:28:35;;;;;;;23.70;14.68;;;;;;;;;;5002398;28;20145;-75
2023/12/01 02:31:00;;;;;;;22.20;14.88;;;;;;;;;;4986647;28;20045;-74
2023/12/01 02:33:25;;;;;;;26.13;15.43;;;;;;;;;;4989530;28;20030;-75
2023/12/01 02:35:51;;;;;;;25.33;16.13;;;;;;;;;;4983311;28;20440;-75
2023/12/01 02:38:17;;;;;;;31.40;19.65;;;;;;;;;;5004776;28;20125;-75
2023/12/01 02:40:49;;;;;;;27.55;16.60;;;;;;;;;;5009096;28;20030;-76
2023/12/01 02:43:15;;;;;;;28.15;17.15;;;;;;;;;;4972673;28;20084;-75
2023/12/01 02:45:40;;;;;;;31.38;17.70;;;;;;;;;;4981232;28;20026;-75
2023/12/01 02:48:06;;;;;;;27.80;15.88;;;;;;;;;;4982952;28;20026;-76
2023/12/01 02:50:31;;;;;;;28.40;16.90;;;;;;;;;;4985804;28;20049;-76
2023/12/01 02:52:57;;;;;;;32.10;19.33;;;;;;;;;;4984066;28;20458;-75
2023/12/01 02:55:22;;;;;;;35.03;20.25;;;;;;;;;;4981357;28;20066;-76
2023/12/01 02:57:47;;;;;;;33.47;19.73;;;;;;;;;;4985414;28;20026;-75
2023/12/01 03:00:15;;;;;;;37.83;22.17;;;;;;;;;;5000884;28;20034;-75
2023/12/01 03:02:43;;;;;;;36.00;21.70;;;;;;;;;;4987698;28;20121;-75
2023/12/01 03:05:09;;;;;;;34.08;19.48;;;;;;;;;;5007210;28;20676;-75
2023/12/01 03:07:37;;;;;;;33.38;20.23;;;;;;;;;;4982018;28;20027;-75
2023/12/01 03:10:03;;;;;;;37.53;21.02;;;;;;;;;;4993162;28;20034;-75
2023/12/01 03:12:29;;;;;;;33.65;20.25;;;;;;;;;;4995843;28;20463;-75
2023/12/01 03:14:54;;;;;;;34.10;19.58;;;;;;;;;;4985465;28;20110;-75
2023/12/01 03:17:23;;;;;;;38.28;22.45;;;;;;;;;;4982743;28;20105;-75
2023/12/01 03:19:48;;;;;;;31.85;19.63;;;;;;;;;;4985891;28;20541;-76
2023/12/01 03:22:13;;;;;;;35.47;20.48;;;;;;;;;;4983294;28;20058;-75
2023/12/01 03:24:40;;;;;;;32.47;17.60;;;;;;;;;;4981699;28;20107;-76
2023/12/01 03:27:05;;;;;;;29.35;16.65;;;;;;;;;;4979562;28;20027;-75
2023/12/01 03:29:32;;;;;;;28.52;17.80;;;;;;;;;;4992416;28;20572;-75
2023/12/01 03:31:58;;;;;;;29.73;17.95;;;;;;;;;;4980179;28;20029;-75
2023/12/01 03:34:23;;;;;;;24.88;15.88;;;;;;;;;;4984698;28;20402;-74
2023/12/01 03:36:48;;;;;;;25.60;15.63;;;;;;;;;;4995756;28;20461;-75
2023/12/01 03:39:13;;;;;;;26.83;16.10;;;;;;;;;;4981659;28;20042;-75
2023/12/01 03:41:39;;;;;;;28.13;16.20;;;;;;;;;;4994454;28;20601;-75
2023/12/01 03:44:04;;;;;;;26.90;16.65;;;;;;;;;;4980037;28;20030;-75
2023/12/01 03:46:29;;;;;;;27.27;16.75;;;;;;;;;;5008013;28;20034;-75
2023/12/01 03:48:54;;;;;;;25.65;15.05;;;;;;;;;;4982085;28;20030;-76
2023/12/01 03:51:19;;;;;;;28.88;17.13;;;;;;;;;;4999314;28;20449;-75
2023/12/01 03:53:45;;;;;;;27.52;16.08;;;;;;;;;;4997332;28;20026;-76
2023/12/01 03:56:10;;;;;;;25.55;14.32;;;;;;;;;;4994408;28;20444;-75
2023/12/01 03:58:35;;;;;;;29.30;16.73;;;;;;;;;;4992412;28;20456;-76
2023/12/01 04:01:05;;;;;;;26.92;15.77;;;;;;;;;;4984868;28;20049;-76
2023/12/01 04:03:30;;;;;;;26.15;16.08;;;;;;;;;;4981482;28;20066;-75
2023/12/01 04:05:59;;;;;;;27.83;16.83;;;;;;;;;;4994185;28;20481;-75
2023/12/01 04:08:25;;;;;;;28.58;16.75;;;;;;;;;;4996502;28;20026;-75
2023/12/01 04:10:52;;;;;;;29.55;16.65;;;;;;;;;;4988753;28;20484;-75
2023/12/01 04:13:18;;;;;;;31.50;19.40;;;;;;;;;;4983021;28;20050;-76
2023/12/01 04:15:43;;;;;;;29.08;17.13;;;;;;;;;;4982263;28;20034;-76
2023/12/01 04:18:08;;;;;;;34.47;18.80;;;;;;;;;;4984961;28;20034;-76
2023/12/01 04:20:38;;;;;;;29.33;16.60;;;;;;;;;;5011958;28;20026;-76
2023/12/01 04:23:03;;;;;;;32.67;19.75;;;;;;;;;;4995230;28;20030;-76
2023/12/01 04:25:28;;;;;;;41.70;23.83;;;;;;;;;;4981249;28;20027;-76
2023/12/01 04:27:55;;;;;;;32.25;20.15;;;;;;;;;;4979027;28;20083;-76
2023/12/01 04:30:20;;;;;;;35.67;21.38;;;;;;;;;;4982709;28;20045;-76
2023/12/01 04:32:48;;;;;;;42.72;25.25;;;;;;;;;;5009685;28;20106;-76
2023/12/01 04:35:13;;;;;;;38.83;22.17;;;;;;;;;;5008514;28;20034;-76
2023/12/01 04:37:41;;;;;;;35.42;19.40;;;;;;;;;;4980710;28;20031;-76
2023/12/01 04:40:14;;;;;;;38.67;24.42;;;;;;;;;;4978970;28;20113;-76
2023/12/01 04:42:40;;;;;;;37.70;21.75;;;;;;;;;;5013011;28;20030;-76
2023/12/01 04:45:07;;;;;;;38.85;21.88;;;;;;;;;;4978397;28;20031;-76
2023/12/01 04:47:33;;;;;;;37.78;21.10;;;;;;;;;;4980559;28;20030;-76
2023/12/01 04:49:58;;;;;;;41.55;24.15;;;;;;;;;;4991064;28;20027;-76
2023/12/01 04:52:23;;;;;;;37.58;21.58;;;;;;;;;;4989583;28;20132;-76
2023/12/01 04:54:48;;;;;;;33.45;19.15;;;;;;;;;;4984381;28;20022;-76
2023/12/01 04:57:13;;;;;;;37.97;21.63;;;;;;;;;;4981838;28;20031;-76
2023/12/01 04:59:39;;;;;;;33.53;18.83;;;;;;;;;;4999669;28;20053;-76
2023/12/01 05:02:04;;;;;;;38.15;22.20;;;;;;;;;;4989837;28;20034;-76
2023/12/01 05:04:29;;;;;;;39.50;22.85;;;;;;;;;;4989818;28;20070;-76
2023/12/01 05:06:54;;;;;;;37.13;23.17;;;;;;;;;;4997213;28;20022;-77
2023/12/01 05:09:22;;;;;;;36.08;21.85;;;;;;;;;;4990493;28;20067;-76
2023/12/01 05:11:47;;;;;;;44.65;23.65;;;;;;;;;;5002323;28;20028;-77
2023/12/01 05:14:13;;;;;;;34.45;21.65;;;;;;;;;;5022008;28;20038;-76
2023/12/01 05:16:39;;;;;;;33.17;18.77;;;;;;;;;;4990055;28;20041;-75
2023/12/01 05:19:05;;;;;;;34.00;19.20;;;;;;;;;;4988537;28;20077;-78
2023/12/01 05:21:30;;;;;;;31.38;18.55;;;;;;;;;;4995615;28;20038;-77
2023/12/01 05:23:57;;;;;;;32.97;19.95;;;;;;;;;;4997096;28;20034;-77
2023/12/01 05:26:22;;;;;;;32.05;19.08;;;;;;;;;;4991705;28;20034;-78
2023/12/01 05:28:48;;;;;;;28.90;17.88;;;;;;;;;;4994513;28;20030;-78
2023/12/01 05:31:13;;;;;;;30.65;18.10;;;;;;;;;;4992574;28;20046;-76
2023/12/01 05:33:38;;;;;;;32.28;18.88;;;;;;;;;;5000183;28;20045;-77
2023/12/01 05:36:08;;;;;;;31.80;19.95;;;;;;;;;;4991499;28;20023;-77
2023/12/01 05:38:34;;;;;;;37.00;21.52;;;;;;;;;;4988102;28;20039;-76
2023/12/01 05:40:59;;;;;;;37.67;22.55;;;;;;;;;;4992000;28;20083;-77
2023/12/01 05:43:24;;;;;;;37.42;23.77;;;;;;;;;;4986325;28;20046;-76
2023/12/01 05:45:50;;;;;;;38.08;21.83;;;;;;;;;;5010099;28;20027;-77
2023/12/01 05:48:15;;;;;;;33.22;20.38;;;;;;;;;;4992026;28;20285;-77
2023/12/01 05:50:42;;;;;;;42.10;23.25;;;;;;;;;;5002344;28;20699;-77
2023/12/01 05:53:08;;;;;;;39.55;21.20;;;;;;;;;;5007899;28;20026;-76
2023/12/01 05:55:33;;;;;;;39.80;22.92;;;;;;;;;;4995126;28;20033;-78
2023/12/01 05:58:01;;;;;;;38.22;22.02;;;;;;;;;;5009948;28;20030;-78
2023/12/01 06:00:29;;;;;;;42.35;24.15;;;;;;;;;;5000731;28;20053;-77
2023/12/01 06:02:55;;;;;;;41.40;24.95;;;;;;;;;;4993698;28;20030;-77
2023/12/01 06:05:20;;;;;;;45.60;27.80;;;;;;;;;;5016671;28;20045;-77
2023/12/01 06:07:52;;;;;;;56.58;31.42;;;;;;;;;;5012594;28;20023;-77
2023/12/01 06:10:17;;;;;;;61.40;33.00;;;;;;;;;;5005003;28;20034;-77
2023/12/01 06:12:42;;;;;;;46.03;25.52;;;;;;;;;;5008521;28;21779;-78
2023/12/01 06:15:15;;;;;;;42.85;23.45;;;;;;;;;;5002845;28;20125;-77
2023/12/01 06:17:41;;;;;;;36.88;20.60;;;;;;;;;;4987940;28;20043;-77
2023/12/01 06:20:17;;;;;;;38.97;23.17;;;;;;;;;;5012263;28;20124;-77
2023/12/01 06:23:05;;;;;;;49.47;27.08;;;;;;;;;;5009900;28;20034;-77
2023/12/01 06:25:31;;;;;;;37.38;21.75;;;;;;;;;;5003408;28;20046;-77
2023/12/01 06:27:57;;;;;;;36.88;22.25;;;;;;;;;;4986246;28;20094;-77
2023/12/01 06:30:23;;;;;;;39.33;23.17;;;;;;;;;;4990778;28;20038;-77
2023/12/01 06:32:48;;;;;;;42.10;23.02;;;;;;;;;;5032041;28;20024;-77
2023/12/01 06:35:14;;;;;;;41.33;21.98;;;;;;;;;;5027062;28;20118;-77
2023/12/01 06:37:40;;;;;;;40.60;24.00;;;;;;;;;;5026503;28;20393;-77
2023/12/01 06:40:11;;;;;;;37.60;21.13;;;;;;;;;;4998878;28;20039;-77
2023/12/01 06:42:37;;;;;;;39.00;21.70;;;;;;;;;;4998276;28;20034;-77
2023/12/01 06:45:03;;;;;;;37.17;20.80;;;;;;;;;;4985410;28;20167;-77
2023/12/01 06:47:28;;;;;;;37.08;20.92;;;;;;;;;;4987260;28;20109;-77
2023/12/01 06:49:55;;;;;;;38.22;21.83;;;;;;;;;;5037169;28;20107;-77
2023/12/01 06:52:21;;;;;;;50.45;26.88;;;;;;;;;;5020501;28;20041;-77
2023/12/01 06:54:46;;;;;;;37.55;23.00;;;;;;;;;;4985003;28;20034;-77
2023/12/01 06:57:11;;;;;;;37.65;22.13;;;;;;;;;;4986207;28;20043;-77
2023/12/01 06:59:36;;;;;;;36.75;20.02;;;;;;;;;;4988442;28;20101;-77
2023/12/01 07:02:01;;;;;;;37.38;21.45;;;;;;;;;;5007595;28;20506;-77
2023/12/01 07:04:26;;;;;;;38.08;20.98;;;;;;;;;;4988639;28;20050;-77
2023/12/01 07:06:53;;;;;;;31.75;17.88;;;;;;;;;;4985795;28;20033;-77
2023/12/01 07:09:18;;;;;;;36.85;20.27;;;;;;;;;;4984445;28;20384;-77
2023/12/01 07:11:44;;;;;;;39.25;22.00;;;;;;;;;;4994334;28;20052;-77
2023/12/01 07:14:12;;;;;;;37.00;21.27;;;;;;;;;;4992249;28;20062;-78
2023/12/01 07:16:37;;;;;;;37.13;20.90;;;;;;;;;;4998579;28;20517;-77
2023/12/01 07:19:03;;;;;;;37.53;21.15;;;;;;;;;;5012240;28;20129;-77
2023/12/01 07:21:30;;;;;;;37.08;20.38;;;;;;;;;;5015726;28;20058;-77
2023/12/01 07:23:55;;;;;;;35.17;19.48;;;;;;;;;;5003555;28;20031;-77
2023/12/01 07:26:25;;;;;;;36.28;19.98;;;;;;;;;;4987168;28;20117;-77
2023/12/01 07:28:52;;;;;;;36.45;21.25;;;;;;;;;;4990190;28;20035;-77
2023/12/01 07:31:17;;;;;;;39.03;21.17;;;;;;;;;;5008236;28;20034;-77
2023/12/01 07:33:42;;;;;;;38.28;21.85;;;;;;;;;;5004258;28;20038;-78
2023/12/01 07:36:08;;;;;;;39.38;21.95;;;;;;;;;;5012963;28;20494;-77
2023/12/01 07:38:33;;;;;;;40.63;23.67;;;;;;;;;;5011764;28;20038;-78
2023/12/01 07:40:59;;;;;;;44.15;25.75;;;;;;;;;;4998914;28;20044;-77
2023/12/01 07:43:24;;;;;;;37.97;21.55;;;;;;;;;;5011788;28;20035;-77
2023/12/01 07:45:49;;;;;;;38.85;22.38;;;;;;;;;;4986777;28;20061;-77
2023/12/01 07:48:14;;;;;;;38.40;21.50;;;;;;;;;;4984916;28;20035;-77
2023/12/01 07:50:39;;;;;;;39.90;22.52;;;;;;;;;;5004312;28;20035;-77
2023/12/01 07:53:04;;;;;;;42.10;25.25;;;;;;;;;;4992998;28;20027;-78
2023/12/01 07:55:30;;;;;;;42.00;24.88;;;;;;;;;;4989667;28;20037;-77
2023/12/01 07:57:55;;;;;;;37.22;22.63;;;;;;;;;;4989355;28;20083;-77
2023/12/01 08:00:21;;;;;;;42.30;24.10;;;;;;;;;;5003582;28;20045;-78
2023/12/01 08:02:47;;;;;;;42.63;24.63;;;;;;;;;;5017890;28;20072;-78
2023/12/01 08:05:15;;;;;;;40.97;22.70;;;;;;;;;;4985612;28;20039;-77
2023/12/01 08:07:41;;;;;;;38.50;22.70;;;;;;;;;;4987416;28;20034;-78
2023/12/01 08:10:07;;;;;;;42.85;25.45;;;;;;;;;;4988752;28;20038;-78
2023/12/01 08:12:32;;;;;;;39.53;22.90;;;;;;;;;;5007936;28;20022;-77
2023/12/01 08:14:58;;;;;;;41.70;23.10;;;;;;;;;;5019785;28;20115;-77
2023/12/01 08:17:24;;;;;;;40.53;22.75;;;;;;;;;;5016028;28;20126;-78
2023/12/01 08:19:49;;;;;;;38.80;22.90;;;;;;;;;;4992270;28;20081;-78
2023/12/01 08:22:14;;;;;;;34.50;20.17;;;;;;;;;;4994110;28;20034;-78
2023/12/01 08:24:39;;;;;;;39.75;24.65;;;;;;;;;;5014859;28;20109;-78
2023/12/01 08:27:05;;;;;;;37.80;22.52;;;;;;;;;;4985763;28;20031;-77
2023/12/01 08:29:30;;;;;;;37.33;22.17;;;;;;;;;;4988528;28;20049;-77
2023/12/01 08:31:55;;;;;;;50.60;26.50;;;;;;;;;;5006652;28;20039;-77
2023/12/01 08:34:20;;;;;;;38.25;21.83;;;;;;;;;;4987611;28;20046;-77
2023/12/01 08:36:45;;;;;;;37.13;21.02;;;;;;;;;;4984722;28;20035;-77
2023/12/01 08:39:12;;;;;;;37.03;22.55;;;;;;;;;;4987205;28;20176;-77
2023/12/01 08:41:37;;;;;;;37.67;20.80;;;;;;;;;;5010216;28;20030;-77
2023/12/01 08:44:03;;;;;;;36.92;19.77;;;;;;;;;;4981365;28;20575;-76
2023/12/01 08:46:28;;;;;;;40.67;22.48;;;;;;;;;;4997065;28;20450;-76
2023/12/01 08:48:53;;;;;;;35.33;20.27;;;;;;;;;;4978388;28;20023;-76
2023/12/01 08:51:18;;;;;;;33.83;19.77;;;;;;;;;;4985710;28;20041;-76
2023/12/01 08:53:43;;;;;;;36.53;22.10;;;;;;;;;;4995314;28;20045;-77
2023/12/01 08:56:09;;;;;;;40.17;22.10;;;;;;;;;;4979435;28;20034;-76
2023/12/01 08:58:35;;;;;;;37.05;21.55;;;;;;;;;;5000275;28;20034;-77
2023/12/01 09:01:00;;;;;;;36.10;20.85;;;;;;;;;;4989877;28;20034;-75
2023/12/01 09:03:25;;;;;;;35.97;20.48;;;;;;;;;;4996997;28;20815;-76
2023/12/01 09:05:50;;;;;;;39.20;21.73;;;;;;;;;;5029455;28;20059;-76
2023/12/01 09:08:16;;;;;;;38.10;23.60;;;;;;;;;;5024835;28;20022;-77
2023/12/01 09:10:41;;;;;;;40.22;23.35;;;;;;;;;;5009973;28;20039;-77
2023/12/01 09:13:06;;;;;;;38.53;23.13;;;;;;;;;;4997993;28;20038;-76
2023/12/01 09:15:31;;;;;;;35.08;21.90;;;;;;;;;;4982598;28;20030;-77
2023/12/01 09:17:57;;;;;;;37.75;22.13;;;;;;;;;;4978948;28;20425;-77
2023/12/01 09:20:22;;;;;;;37.83;21.73;;;;;;;;;;5005571;28;20041;-77
2023/12/01 09:22:47;;;;;;;33.78;21.48;;;;;;;;;;5002700;28;20100;-77
2023/12/01 09:25:12;;;;;;;36.05;21.88;;;;;;;;;;4979642;28;20125;-77
2023/12/01 09:27:39;;;;;;;37.53;22.60;;;;;;;;;;4983352;28;20052;-77
2023/12/01 09:30:07;;;;;;;35.80;21.25;;;;;;;;;;4987355;28;20030;-77
2023/12/01 09:32:32;;;;;;;40.97;24.90;;;;;;;;;;4993952;28;20597;-77
2023/12/01 09:34:57;;;;;;;35.70;21.27;;;;;;;;;;4982715;28;20117;-76
2023/12/01 09:37:23;;;;;;;38.25;23.25;;;;;;;;;;4980212;28;20027;-77
2023/12/01 09:39:48;;;;;;;35.00;19.88;;;;;;;;;;4982360;28;20076;-77
2023/12/01 09:42:14;;;;;;;33.45;20.05;;;;;;;;;;4991273;28;20031;-77
2023/12/01 09:44:39;;;;;;;33.40;20.77;;;;;;;;;;4986555;28;20520;-77
2023/12/01 09:47:05;;;;;;;34.53;20.98;;;;;;;;;;4989330;28;20091;-77
2023/12/01 09:49:32;;;;;;;38.95;23.63;;;;;;;;;;4981627;28;20031;-76
2023/12/01 09:51:58;;;;;;;34.78;21.73;;;;;;;;;;5008018;28;20034;-77
2023/12/01 09:54:23;;;;;;;43.83;26.75;;;;;;;;;;4979806;28;20466;-76
2023/12/01 09:56:48;;;;;;;61.40;34.83;;;;;;;;;;4976655;28;20038;-76
2023/12/01 09:59:16;;;;;;;56.38;31.73;;;;;;;;;;4981653;28;20478;-76
2023/12/01 10:01:41;;;;;;;49.50;28.77;;;;;;;;;;4995238;28;20089;-76
2023/12/01 10:04:06;;;;;;;50.55;28.13;;;;;;;;;;4996995;28;20469;-75
2023/12/01 10:06:32;;;;;;;43.15;26.75;;;;;;;;;;4990163;28;20080;-76
2023/12/01 10:08:57;;;;;;;36.42;22.85;;;;;;;;;;4983270;28;20046;-77
2023/12/01 10:11:24;;;;;;;32.30;19.13;;;;;;;;;;4995637;28;20030;-78
2023/12/01 10:13:50;;;;;;;31.75;19.10;;;;;;;;;;4981909;28;20070;-77
2023/12/01 10:16:15;;;;;;;33.40;20.85;;;;;;;;;;4984885;28;20089;-78
2023/12/01 10:18:55;;;;;;;35.50;20.30;;;;;;;;;;5009549;28;20063;-77
2023/12/01 10:21:20;;;;;;;33.70;19.17;;;;;;;;;;4999966;28;20117;-75
2023/12/01 10:23:45;;;;;;;31.27;18.95;;;;;;;;;;5000948;28;20121;-75
2023/12/01 10:26:13;;;;;;;31.85;19.30;;;;;;;;;;4999533;28;20451;-76
2023/12/01 10:28:43;;;;;;;28.33;17.35;;;;;;;;;;4988953;28;20064;-76
2023/12/01 10:31:09;;;;;;;30.23;18.70;;;;;;;;;;5002448;28;20109;-75
2023/12/01 10:33:35;;;;;;;27.45;16.58;;;;;;;;;;5021957;28;20045;-76
2023/12/01 10:36:01;;;;;;;28.90;18.65;;;;;;;;;;5006308;28;20030;-75
2023/12/01 10:38:27;;;;;;;29.40;18.88;;;;;;;;;;4981947;28;20086;-76
2023/12/01 10:40:53;;;;;;;27.65;16.48;;;;;;;;;;4980263;28;20108;-76
2023/12/01 10:43:20;;;;;;;26.33;16.05;;;;;;;;;;4987257;28;20410;-76
2023/12/01 10:45:46;;;;;;;28.02;16.52;;;;;;;;;;4979043;28;20038;-76
2023/12/01 10:48:11;;;;;;;26.70;16.58;;;;;;;;;;4984606;28;20105;-75
2023/12/01 10:50:36;;;;;;;26.77;15.68;;;;;;;;;;5002677;28;20062;-76
2023/12/01 10:53:02;;;;;;;24.65;15.15;;;;;;;;;;4995000;28;20066;-75
2023/12/01 10:55:28;;;;;;;23.45;14.80;;;;;;;;;;4982797;28;20117;-74
2023/12/01 10:57:54;;;;;;;23.50;14.85;;;;;;;;;;4983007;28;20064;-75
2023/12/01 11:00:31;;;;;;;24.77;14.23;;;;;;;;;;4997135;28;20068;-75
2023/12/01 11:03:00;;;;;;;23.70;14.57;;;;;;;;;;4997586;28;20034;-75
2023/12/01 11:05:30;;;;;;;24.45;14.93;;;;;;;;;;4994766;28;20038;-75
2023/12/01 11:08:14;;;;;;;24.20;14.18;;;;;;;;;;4993083;28;20034;-76
2023/12/01 11:10:49;;;;;;;24.65;16.08;;;;;;;;;;4994159;28;20394;-76
2023/12/01 11:13:33;;;;;;;26.02;15.88;;;;;;;;;;5005810;28;20491;-76
2023/12/01 11:15:59;;;;;;;27.73;16.02;;;;;;;;;;5004352;28;20064;-77
2023/12/01 11:18:24;;;;;;;29.98;20.08;;;;;;;;;;5007222;28;20076;-76
2023/12/01 11:20:51;;;;;;;27.15;17.90;;;;;;;;;;4984601;28;20030;-75
2023/12/01 11:23:16;;;;;;;29.33;17.48;;;;;;;;;;4984721;28;20058;-76
2023/12/01 11:25:43;;;;;;;28.35;16.88;;;;;;;;;;4990906;28;20069;-75
2023/12/01 11:28:20;;;;;;;27.45;17.23;;;;;;;;;;4982150;28;20042;-76
2023/12/01 11:31:13;;;;;;;29.38;18.33;;;;;;;;;;5008957;28;20498;-76
2023/12/01 11:33:52;;;;;;;26.77;16.10;;;;;;;;;;4983979;28;20041;-76
2023/12/01 11:36:20;;;;;;;28.08;17.40;;;;;;;;;;4980833;28;20113;-77
2023/12/01 11:39:08;;;;;;;28.60;17.73;;;;;;;;;;4982528;28;20046;-76
2023/12/01 11:41:33;;;;;;;27.70;17.67;;;;;;;;;;4987969;28;20509;-76
2023/12/01 11:44:07;;;;;;;25.63;16.20;;;;;;;;;;4984509;28;20042;-76
2023/12/01 11:46:32;;;;;;;28.13;18.08;;;;;;;;;;4995045;28;20034;-75
2023/12/01 11:48:58;;;;;;;30.15;16.73;;;;;;;;;;4993606;28;20513;-76
2023/12/01 11:51:23;;;;;;;28.67;17.08;;;;;;;;;;4986530;28;20034;-76
2023/12/01 11:53:56;;;;;;;31.50;19.35;;;;;;;;;;4997732;28;20034;-76
2023/12/01 11:56:24;;;;;;;46.38;28.17;;;;;;;;;;5002315;28;20598;-75
2023/12/01 11:58:53;;;;;;;44.55;25.05;;;;;;;;;;4981392;28;20038;-77
2023/12/01 12:01:43;;;;;;;29.83;17.27;;;;;;;;;;4985557;28;20119;-77
2023/12/01 12:04:11;;;;;;;29.90;19.10;;;;;;;;;;4984416;28;20035;-76
2023/12/01 12:06:36;;;;;;;29.05;18.27;;;;;;;;;;5015962;28;20031;-78
2023/12/01 12:09:06;;;;;;;31.10;18.27;;;;;;;;;;5020770;28;20036;-77
2023/12/01 12:11:32;;;;;;;28.70;17.80;;;;;;;;;;4985301;28;20502;-77
2023/12/01 12:14:01;;;;;;;27.77;17.42;;;;;;;;;;4989146;28;20026;-76
2023/12/01 12:16:27;;;;;;;28.65;17.88;;;;;;;;;;4982791;28;20077;-76
2023/12/01 12:18:52;;;;;;;44.92;25.02;;;;;;;;;;4979859;28;20065;-77
2023/12/01 12:21:17;;;;;;;36.25;22.63;;;;;;;;;;4988542;28;20038;-77
2023/12/01 12:23:43;;;;;;;30.48;18.85;;;;;;;;;;4987049;28;20042;-77
2023/12/01 12:26:18;;;;;;;33.25;20.15;;;;;;;;;;4983044;28;20113;-77
2023/12/01 12:28:46;;;;;;;28.15;17.35;;;;;;;;;;5004299;28;20479;-77
2023/12/01 12:31:12;;;;;;;27.50;18.40;;;;;;;;;;4998602;28;20026;-77
2023/12/01 12:33:37;;;;;;;30.67;18.02;;;;;;;;;;4993602;28;20491;-76
2023/12/01 12:36:03;;;;;;;27.13;17.60;;;;;;;;;;4978637;28;20160;-77
2023/12/01 12:38:29;;;;;;;27.25;16.50;;;;;;;;;;4983223;28;20070;-76
2023/12/01 12:40:54;;;;;;;27.17;16.60;;;;;;;;;;4975399;28;20505;-77
2023/12/01 12:43:20;;;;;;;26.27;16.25;;;;;;;;;;4990670;28;20027;-77
2023/12/01 12:45:48;;;;;;;28.60;17.92;;;;;;;;;;5003562;28;20080;-77
2023/12/01 12:48:13;;;;;;;27.83;17.73;;;;;;;;;;4983446;28;20401;-76
2023/12/01 12:50:41;;;;;;;28.40;17.20;;;;;;;;;;4982754;28;20026;-77
2023/12/01 12:53:07;;;;;;;23.02;14.02;;;;;;;;;;4987106;28;20051;-78
2023/12/01 12:55:32;;;;;;;23.65;15.20;;;;;;;;;;5007965;28;21058;-77
2023/12/01 12:57:58;;;;;;;21.40;13.20;;;;;;;;;;5001129;28;20039;-77
2023/12/01 13:00:23;;;;;;;39.28;21.60;;;;;;;;;;4995092;28;20079;-76
2023/12/01 13:02:48;;;;;;;27.52;14.85;;;;;;;;;;4989988;28;20042;-78
2023/12/01 13:05:13;;;;;;;19.83;12.35;;;;;;;;;;4979452;28;20399;-78
2023/12/01 13:07:39;;;;;;;39.88;21.88;;;;;;;;;;5007073;28;20027;-78
2023/12/01 13:10:04;;;;;;;39.28;21.35;;;;;;;;;;5012361;28;20034;-77
2023/12/01 13:12:29;;;;;;;17.67;10.70;;;;;;;;;;4986362;28;20035;-79
2023/12/01 13:14:54;;;;;;;17.33;10.60;;;;;;;;;;4991516;28;20030;-76
2023/12/01 13:17:22;;;;;;;16.98;10.57;;;;;;;;;;5025462;28;20111;-77
2023/12/01 13:19:48;;;;;;;19.00;10.30;;;;;;;;;;5004851;28;20046;-77
2023/12/01 13:22:13;;;;;;;17.67;10.85;;;;;;;;;;4987519;28;20096;-77
2023/12/01 13:24:39;;;;;;;16.98;10.48;;;;;;;;;;4999771;28;20062;-77
2023/12/01 13:27:04;;;;;;;19.90;12.13;;;;;;;;;;4995999;28;20110;-77
2023/12/01 13:29:30;;;;;;;20.90;11.40;;;;;;;;;;4980147;28;20560;-76
2023/12/01 13:31:55;;;;;;;24.73;15.38;;;;;;;;;;4984913;28;20507;-77
2023/12/01 13:34:20;;;;;;;24.23;13.07;;;;;;;;;;4981032;28;20058;-77
2023/12/01 13:36:48;;;;;;;21.05;12.15;;;;;;;;;;4986983;28;20034;-77
2023/12/01 13:39:16;;;;;;;21.25;12.70;;;;;;;;;;4992863;28;20397;-77
2023/12/01 13:41:41;;;;;;;20.95;11.07;;;;;;;;;;4987110;28;20026;-77
2023/12/01 13:44:06;;;;;;;17.35;10.65;;;;;;;;;;4982474;28;20091;-77
2023/12/01 13:46:32;;;;;;;17.92;10.05;;;;;;;;;;4981676;28;20034;-77
2023/12/01 13:48:57;;;;;;;17.33;9.95;;;;;;;;;;5016888;28;20028;-77
2023/12/01 13:51:22;;;;;;;19.17;10.80;;;;;;;;;;4997555;28;20065;-77
2023/12/01 13:53:47;;;;;;;15.75;9.27;;;;;;;;;;4992956;28;20044;-77
2023/12/01 13:56:12;;;;;;;16.60;9.90;;;;;;;;;;4980562;28;20038;-76
2023/12/01 13:58:41;;;;;;;17.63;10.52;;;;;;;;;;5016627;28;20030;-77
2023/12/01 14:01:06;;;;;;;18.35;10.90;;;;;;;;;;4997807;28;20091;-76
2023/12/01 14:03:31;;;;;;;17.65;10.65;;;;;;;;;;4986985;28;20043;-78
2023/12/01 14:05:56;;;;;;;20.92;10.50;;;;;;;;;;4982368;28;20076;-76
2023/12/01 14:08:24;;;;;;;18.83;10.90;;;;;;;;;;4984903;28;20483;-77
2023/12/01 14:10:49;;;;;;;18.55;11.65;;;;;;;;;;4994709;28;20030;-77